Time;durP1;ratioP1;P1;durP2;ratioP2;P2;SDS_P1;SDS_P2;PMS_P1;PMS_P2;Temp;Humidity;BMP_temperature;BMP_pressure;BME280_temperature;BME280_humidity;BME280_pressure;Samples;Min_cycle;Max_cycle;Signal;HPM_P1;HPM_P2
2023/07/17 00:02:23;;;;;;;3.47;1.55;;;;;;;;;;5033717;28;20060;-84
2023/07/17 00:04:50;;;;;;;3.70;1.80;;;;;;;;;;5032961;28;20045;-86
2023/07/17 00:07:15;;;;;;;3.10;1.70;;;;;;;;;;5015843;28;20481;-86
2023/07/17 00:09:43;;;;;;;4.45;1.85;;;;;;;;;;5015852;28;20030;-85
2023/07/17 00:12:09;;;;;;;2.83;1.42;;;;;;;;;;5026473;28;20021;-85
2023/07/17 00:14:34;;;;;;;3.63;1.85;;;;;;;;;;5015614;28;20029;-84
2023/07/17 00:17:00;;;;;;;4.57;1.95;;;;;;;;;;5015390;28;20070;-85
2023/07/17 00:19:26;;;;;;;4.60;1.80;;;;;;;;;;5028909;28;20037;-86
2023/07/17 00:21:51;;;;;;;6.00;2.20;;;;;;;;;;5025665;28;20034;-84
2023/07/17 00:24:17;;;;;;;4.32;1.95;;;;;;;;;;5025832;28;20128;-84
2023/07/17 00:26:42;;;;;;;7.55;1.98;;;;;;;;;;5027241;28;20033;-85
2023/07/17 00:29:25;;;;;;;4.03;1.90;;;;;;;;;;5014654;28;20040;-85
2023/07/17 00:31:51;;;;;;;4.35;2.35;;;;;;;;;;5014732;28;20032;-85
2023/07/17 00:34:18;;;;;;;4.40;2.45;;;;;;;;;;5015026;28;20473;-85
2023/07/17 00:36:44;;;;;;;4.30;1.80;;;;;;;;;;5032367;28;20017;-84
2023/07/17 00:39:10;;;;;;;4.95;2.13;;;;;;;;;;5021347;28;20032;-85
2023/07/17 00:41:36;;;;;;;4.78;1.80;;;;;;;;;;5011614;28;20025;-84
2023/07/17 00:44:01;;;;;;;5.18;2.00;;;;;;;;;;5032690;28;20092;-85
2023/07/17 00:46:27;;;;;;;4.28;1.88;;;;;;;;;;5015492;28;20025;-85
2023/07/17 00:48:53;;;;;;;3.60;1.90;;;;;;;;;;5032599;28;20028;-84
2023/07/17 00:51:18;;;;;;;5.10;2.20;;;;;;;;;;5031729;28;20032;-84
2023/07/17 00:53:44;;;;;;;3.53;1.75;;;;;;;;;;5015209;28;20103;-85
2023/07/17 00:56:10;;;;;;;2.90;1.70;;;;;;;;;;5034310;28;20029;-85
2023/07/17 00:58:36;;;;;;;4.13;1.85;;;;;;;;;;5032866;28;20053;-86
2023/07/17 01:01:03;;;;;;;3.10;1.60;;;;;;;;;;5032600;28;20025;-86
2023/07/17 01:03:29;;;;;;;3.45;2.15;;;;;;;;;;5032360;28;20425;-84
2023/07/17 01:05:57;;;;;;;4.00;1.83;;;;;;;;;;5032279;28;20029;-86
2023/07/17 01:08:22;;;;;;;3.58;1.83;;;;;;;;;;5014769;28;20024;-85
2023/07/17 01:10:49;;;;;;;3.60;1.70;;;;;;;;;;5016726;28;20025;-85
2023/07/17 01:13:16;;;;;;;3.65;1.95;;;;;;;;;;5014575;28;20124;-83
2023/07/17 01:15:41;;;;;;;5.57;1.88;;;;;;;;;;5012155;28;20022;-84
2023/07/17 01:18:06;;;;;;;4.38;2.00;;;;;;;;;;5012064;28;20063;-86
2023/07/17 01:20:32;;;;;;;5.70;1.80;;;;;;;;;;5028587;28;20017;-86
2023/07/17 01:23:05;;;;;;;5.00;2.13;;;;;;;;;;5015492;28;20474;-84
2023/07/17 01:25:31;;;;;;;4.50;1.88;;;;;;;;;;5029869;28;20470;-84
2023/07/17 01:27:57;;;;;;;4.30;2.00;;;;;;;;;;5027895;28;20100;-85
2023/07/17 01:30:23;;;;;;;5.68;2.30;;;;;;;;;;5030837;28;20445;-84
2023/07/17 01:32:48;;;;;;;4.07;1.85;;;;;;;;;;5012995;28;20116;-86
2023/07/17 01:35:14;;;;;;;4.43;1.90;;;;;;;;;;5028747;28;20031;-85
2023/07/17 01:37:40;;;;;;;4.78;2.05;;;;;;;;;;5027430;28;20458;-85
2023/07/17 01:40:08;;;;;;;3.88;1.90;;;;;;;;;;5031931;28;20037;-86
2023/07/17 01:42:33;;;;;;;5.40;1.90;;;;;;;;;;5032220;28;20025;-85
2023/07/17 01:44:59;;;;;;;6.07;2.10;;;;;;;;;;5032250;28;20029;-85
2023/07/17 01:47:24;;;;;;;4.28;1.95;;;;;;;;;;5025886;28;20386;-85
2023/07/17 01:49:50;;;;;;;6.53;2.30;;;;;;;;;;5032214;28;20482;-85
2023/07/17 01:52:15;;;;;;;5.57;1.98;;;;;;;;;;5014540;28;20021;-85
2023/07/17 01:54:41;;;;;;;4.63;1.90;;;;;;;;;;4998713;28;20030;-85
2023/07/17 01:57:06;;;;;;;5.70;2.15;;;;;;;;;;5018187;28;20484;-85
2023/07/17 01:59:32;;;;;;;5.18;1.98;;;;;;;;;;5008763;28;20038;-84
2023/07/17 02:01:57;;;;;;;3.53;2.10;;;;;;;;;;5032424;28;20021;-84
2023/07/17 02:04:22;;;;;;;4.97;2.17;;;;;;;;;;5035683;28;20063;-85
2023/07/17 02:06:48;;;;;;;5.15;1.95;;;;;;;;;;5032716;28;20041;-84
2023/07/17 02:09:13;;;;;;;3.13;1.70;;;;;;;;;;5031228;28;20022;-85
2023/07/17 02:11:38;;;;;;;4.70;1.90;;;;;;;;;;5019599;28;20021;-84
2023/07/17 02:14:04;;;;;;;5.28;1.90;;;;;;;;;;5035530;28;20024;-85
2023/07/17 02:16:30;;;;;;;5.32;1.95;;;;;;;;;;5010385;28;20021;-84
2023/07/17 02:18:55;;;;;;;5.55;2.13;;;;;;;;;;5025980;28;20026;-86
2023/07/17 02:21:21;;;;;;;4.85;2.20;;;;;;;;;;5011419;28;20040;-84
2023/07/17 02:23:46;;;;;;;3.80;1.90;;;;;;;;;;5015080;28;20478;-82
2023/07/17 02:26:12;;;;;;;4.35;1.80;;;;;;;;;;5016077;28;20112;-85
2023/07/17 02:28:37;;;;;;;3.85;1.88;;;;;;;;;;5025162;28;20025;-83
2023/07/17 02:31:03;;;;;;;5.00;1.73;;;;;;;;;;5033136;28;20045;-83
2023/07/17 02:33:28;;;;;;;5.15;1.92;;;;;;;;;;5008398;28;20029;-85
2023/07/17 02:35:54;;;;;;;3.95;1.80;;;;;;;;;;5017479;28;20090;-85
2023/07/17 02:38:19;;;;;;;7.40;2.15;;;;;;;;;;5028747;28;20030;-83
2023/07/17 02:40:44;;;;;;;4.38;1.80;;;;;;;;;;5021560;28;20033;-84
2023/07/17 02:43:10;;;;;;;4.05;1.80;;;;;;;;;;5003640;28;20022;-85
2023/07/17 02:45:38;;;;;;;4.22;2.20;;;;;;;;;;5033723;28;20547;-84
2023/07/17 02:48:04;;;;;;;3.88;1.80;;;;;;;;;;5021896;28;20096;-85
2023/07/17 02:50:30;;;;;;;2.88;1.58;;;;;;;;;;5033867;28;20029;-85
2023/07/17 02:52:56;;;;;;;4.15;1.80;;;;;;;;;;5034090;28;20108;-85
2023/07/17 02:55:22;;;;;;;4.45;2.15;;;;;;;;;;5035067;28;20093;-84
2023/07/17 02:57:47;;;;;;;4.43;2.10;;;;;;;;;;5035006;28;20045;-85
2023/07/17 03:00:14;;;;;;;3.42;1.52;;;;;;;;;;5017169;28;20134;-85
2023/07/17 03:02:41;;;;;;;3.25;1.75;;;;;;;;;;5035135;28;20121;-84
2023/07/17 03:05:11;;;;;;;4.30;2.20;;;;;;;;;;5034324;28;20389;-85
2023/07/17 03:07:38;;;;;;;4.50;2.10;;;;;;;;;;5035187;28;20032;-85
2023/07/17 03:10:05;;;;;;;4.90;2.28;;;;;;;;;;5035042;28;20065;-85
2023/07/17 03:12:30;;;;;;;4.00;1.85;;;;;;;;;;5016347;28;20028;-84
2023/07/17 03:14:55;;;;;;;3.58;1.67;;;;;;;;;;5034639;28;20025;-83
2023/07/17 03:17:21;;;;;;;4.32;2.25;;;;;;;;;;5034729;28;20425;-86
2023/07/17 03:19:46;;;;;;;5.45;2.28;;;;;;;;;;5015619;28;20025;-83
2023/07/17 03:22:11;;;;;;;3.58;1.95;;;;;;;;;;5034721;28;20018;-85
2023/07/17 03:24:37;;;;;;;3.15;1.95;;;;;;;;;;5031039;28;20092;-85
2023/07/17 03:27:03;;;;;;;4.60;2.00;;;;;;;;;;5034581;28;20074;-85
2023/07/17 03:29:29;;;;;;;5.45;2.40;;;;;;;;;;5034565;28;20159;-85
2023/07/17 03:31:54;;;;;;;3.42;1.95;;;;;;;;;;5034611;28;20491;-85
2023/07/17 03:34:19;;;;;;;4.68;1.90;;;;;;;;;;5035293;28;20025;-85
2023/07/17 03:36:45;;;;;;;4.45;2.05;;;;;;;;;;5028887;28;20033;-85
2023/07/17 03:39:11;;;;;;;3.63;1.90;;;;;;;;;;5020693;28;20087;-84
2023/07/17 03:41:37;;;;;;;4.30;2.00;;;;;;;;;;5028492;28;20447;-84
2023/07/17 03:44:03;;;;;;;5.75;2.28;;;;;;;;;;5017505;28;20025;-85
2023/07/17 03:46:30;;;;;;;4.35;1.70;;;;;;;;;;5033049;28;20092;-85
2023/07/17 03:48:55;;;;;;;5.55;2.03;;;;;;;;;;5029360;28;20021;-85
2023/07/17 03:51:21;;;;;;;4.15;1.90;;;;;;;;;;5010862;28;20075;-85
2023/07/17 03:53:47;;;;;;;4.63;1.92;;;;;;;;;;5006013;28;20366;-84
2023/07/17 03:56:12;;;;;;;4.70;2.10;;;;;;;;;;5038041;28;20070;-85
2023/07/17 03:58:38;;;;;;;4.03;2.08;;;;;;;;;;5014890;28;20083;-86
2023/07/17 04:01:03;;;;;;;6.85;2.22;;;;;;;;;;5014443;28;20394;-85
2023/07/17 04:03:29;;;;;;;3.67;1.90;;;;;;;;;;5030896;28;20021;-85
2023/07/17 04:05:54;;;;;;;3.58;1.80;;;;;;;;;;5015927;28;20474;-84
2023/07/17 04:08:20;;;;;;;5.05;2.08;;;;;;;;;;5015679;28;20177;-86
2023/07/17 04:10:45;;;;;;;4.82;2.05;;;;;;;;;;5026767;28;20022;-85
2023/07/17 04:13:10;;;;;;;5.28;2.40;;;;;;;;;;5032713;28;20107;-85
2023/07/17 04:15:36;;;;;;;5.10;2.53;;;;;;;;;;5018085;28;20033;-85
2023/07/17 04:18:02;;;;;;;5.13;2.10;;;;;;;;;;5032256;28;20021;-83
2023/07/17 04:20:27;;;;;;;3.65;1.80;;;;;;;;;;5025620;28;20026;-86
2023/07/17 04:22:53;;;;;;;5.15;2.50;;;;;;;;;;5026927;28;20100;-80
2023/07/17 04:25:18;;;;;;;5.60;2.40;;;;;;;;;;5025624;28;20025;-86
2023/07/17 04:27:44;;;;;;;7.22;2.20;;;;;;;;;;5032980;28;20030;-83
2023/07/17 04:30:10;;;;;;;4.35;1.92;;;;;;;;;;5026367;28;20030;-83
2023/07/17 04:32:35;;;;;;;3.13;1.80;;;;;;;;;;5005136;28;20466;-84
2023/07/17 04:35:01;;;;;;;6.97;2.30;;;;;;;;;;5026706;28;20049;-85
2023/07/17 04:37:26;;;;;;;5.57;1.88;;;;;;;;;;5027862;28;20096;-83
2023/07/17 04:39:51;;;;;;;5.68;2.22;;;;;;;;;;5030721;28;20022;-85
2023/07/17 04:42:17;;;;;;;5.38;1.88;;;;;;;;;;5006706;28;20017;-85
2023/07/17 04:44:43;;;;;;;6.18;2.25;;;;;;;;;;5015278;28;20032;-82
2023/07/17 04:47:10;;;;;;;7.70;2.50;;;;;;;;;;5014986;28;20032;-84
2023/07/17 04:49:35;;;;;;;4.57;2.25;;;;;;;;;;5026746;28;20033;-85
2023/07/17 04:52:00;;;;;;;7.75;2.17;;;;;;;;;;5029615;28;20025;-84
2023/07/17 04:54:26;;;;;;;6.70;2.65;;;;;;;;;;5025774;28;20017;-85
2023/07/17 04:56:51;;;;;;;5.53;2.10;;;;;;;;;;5032923;28;20014;-85
2023/07/17 04:59:16;;;;;;;5.97;2.63;;;;;;;;;;5031389;28;20025;-86
2023/07/17 05:01:42;;;;;;;6.18;2.97;;;;;;;;;;5032806;28;20385;-85
2023/07/17 05:04:07;;;;;;;5.45;2.60;;;;;;;;;;5015749;28;20033;-84
2023/07/17 05:06:33;;;;;;;4.68;2.40;;;;;;;;;;4998652;28;20401;-86
2023/07/17 05:08:58;;;;;;;7.88;2.95;;;;;;;;;;5031051;28;20473;-86
2023/07/17 05:11:24;;;;;;;6.82;2.50;;;;;;;;;;5032550;28;20023;-85
2023/07/17 05:13:49;;;;;;;7.60;2.72;;;;;;;;;;5032412;28;20026;-86
2023/07/17 05:16:15;;;;;;;7.60;3.00;;;;;;;;;;5030507;28;20028;-86
2023/07/17 05:18:40;;;;;;;7.05;3.13;;;;;;;;;;5032504;28;20025;-86
2023/07/17 05:21:05;;;;;;;5.35;2.85;;;;;;;;;;5032454;28;20038;-85
2023/07/17 05:23:31;;;;;;;7.93;3.20;;;;;;;;;;5014694;28;20029;-86
2023/07/17 05:25:59;;;;;;;7.25;3.15;;;;;;;;;;5030688;28;20156;-85
2023/07/17 05:28:24;;;;;;;7.70;3.28;;;;;;;;;;5032121;28;20029;-85
2023/07/17 05:30:54;;;;;;;7.63;3.22;;;;;;;;;;5014390;28;20029;-86
2023/07/17 05:33:23;;;;;;;6.20;2.80;;;;;;;;;;5032287;28;20037;-87
2023/07/17 05:35:50;;;;;;;5.65;2.80;;;;;;;;;;5014187;28;20104;-85
2023/07/17 05:38:16;;;;;;;8.60;3.70;;;;;;;;;;5018687;28;20551;-85
2023/07/17 05:40:41;;;;;;;8.00;3.30;;;;;;;;;;5036506;28;20026;-86
2023/07/17 05:43:08;;;;;;;6.57;3.00;;;;;;;;;;5036967;28;20079;-86
2023/07/17 05:45:33;;;;;;;7.95;3.42;;;;;;;;;;5036467;28;20382;-87
2023/07/17 05:47:59;;;;;;;10.20;3.70;;;;;;;;;;5015710;28;20041;-86
2023/07/17 05:50:24;;;;;;;8.32;3.33;;;;;;;;;;5033600;28;20393;-86
2023/07/17 05:52:50;;;;;;;6.47;2.92;;;;;;;;;;5018278;28;20026;-86
2023/07/17 05:55:16;;;;;;;7.18;3.35;;;;;;;;;;5019589;28;20584;-86
2023/07/17 05:57:41;;;;;;;8.50;3.00;;;;;;;;;;5036091;28;20086;-86
2023/07/17 06:00:15;;;;;;;9.55;3.55;;;;;;;;;;5036005;28;20021;-86
2023/07/17 06:02:44;;;;;;;8.15;3.15;;;;;;;;;;5018222;28;20025;-86
2023/07/17 06:05:10;;;;;;;9.52;3.42;;;;;;;;;;5018903;28;20029;-87
2023/07/17 06:07:36;;;;;;;7.75;3.47;;;;;;;;;;5018238;28;20557;-82
2023/07/17 06:10:02;;;;;;;9.23;3.80;;;;;;;;;;5034836;28;20100;-86
2023/07/17 06:12:27;;;;;;;8.35;3.80;;;;;;;;;;5011117;28;20169;-86
2023/07/17 06:14:52;;;;;;;10.98;3.90;;;;;;;;;;5035234;28;20068;-86
2023/07/17 06:17:18;;;;;;;8.63;3.22;;;;;;;;;;5015585;28;20095;-87
2023/07/17 06:19:43;;;;;;;10.40;4.22;;;;;;;;;;5012326;28;20108;-86
2023/07/17 06:22:08;;;;;;;9.10;3.33;;;;;;;;;;5027760;28;20413;-87
2023/07/17 06:24:34;;;;;;;9.90;3.80;;;;;;;;;;5016767;28;20079;-87
2023/07/17 06:26:59;;;;;;;11.70;4.35;;;;;;;;;;5030674;28;20466;-86
2023/07/17 06:29:25;;;;;;;7.57;3.90;;;;;;;;;;5035314;28;20121;-85
2023/07/17 06:31:50;;;;;;;7.95;3.80;;;;;;;;;;5035635;28;20021;-87
2023/07/17 06:34:16;;;;;;;9.27;4.15;;;;;;;;;;5017436;28;20055;-86
2023/07/17 06:36:41;;;;;;;10.63;4.30;;;;;;;;;;5013524;28;20041;-87
2023/07/17 06:39:07;;;;;;;9.85;3.72;;;;;;;;;;5012962;28;21065;-87
2023/07/17 06:41:32;;;;;;;10.70;4.00;;;;;;;;;;5021926;28;20539;-85
2023/07/17 06:43:57;;;;;;;8.98;3.92;;;;;;;;;;5014419;28;20029;-87
2023/07/17 06:46:23;;;;;;;7.53;3.50;;;;;;;;;;5024608;28;20037;-87
2023/07/17 06:48:48;;;;;;;9.60;3.47;;;;;;;;;;5016102;28;20017;-85
2023/07/17 06:51:13;;;;;;;10.30;4.05;;;;;;;;;;5010400;28;20475;-86
2023/07/17 06:53:39;;;;;;;9.10;4.10;;;;;;;;;;5022836;28;20112;-87
2023/07/17 06:56:04;;;;;;;10.23;4.20;;;;;;;;;;5033494;28;20032;-85
2023/07/17 06:58:30;;;;;;;14.80;4.88;;;;;;;;;;5020551;28;20061;-86
2023/07/17 07:01:00;;;;;;;9.35;3.88;;;;;;;;;;5035054;28;20728;-87
2023/07/17 07:03:27;;;;;;;9.07;4.03;;;;;;;;;;5034442;28;20378;-87
2023/07/17 07:06:01;;;;;;;8.80;4.30;;;;;;;;;;5032347;28;20053;-86
2023/07/17 07:08:31;;;;;;;10.10;3.78;;;;;;;;;;5017558;28;20025;-85
2023/07/17 07:10:59;;;;;;;9.45;3.90;;;;;;;;;;5034451;28;20553;-87
2023/07/17 07:13:24;;;;;;;11.10;4.38;;;;;;;;;;5017012;28;20029;-87
2023/07/17 07:15:51;;;;;;;10.52;3.90;;;;;;;;;;5017017;28;20023;-86
2023/07/17 07:18:17;;;;;;;11.88;3.88;;;;;;;;;;5016950;28;20060;-87
2023/07/17 07:20:43;;;;;;;7.20;3.70;;;;;;;;;;5034660;28;20021;-88
2023/07/17 07:23:09;;;;;;;10.20;4.25;;;;;;;;;;5032566;28;20032;-86
2023/07/17 07:25:34;;;;;;;9.60;4.03;;;;;;;;;;5016404;28;20551;-87
2023/07/17 07:28:00;;;;;;;8.25;4.05;;;;;;;;;;5017389;28;20025;-86
2023/07/17 07:30:29;;;;;;;7.78;3.80;;;;;;;;;;5034563;28;20033;-87
2023/07/17 07:32:55;;;;;;;7.97;3.72;;;;;;;;;;5015083;28;20029;-88
2023/07/17 07:35:20;;;;;;;10.50;3.70;;;;;;;;;;5015822;28;20159;-88
2023/07/17 07:37:46;;;;;;;7.28;3.95;;;;;;;;;;5033017;28;20052;-87
2023/07/17 07:40:12;;;;;;;10.45;3.92;;;;;;;;;;5032573;28;20021;-87
2023/07/17 07:42:42;;;;;;;9.57;4.30;;;;;;;;;;5033044;28;20028;-88
2023/07/17 07:45:09;;;;;;;9.40;4.20;;;;;;;;;;5016269;28;20024;-88
2023/07/17 07:47:35;;;;;;;10.85;3.78;;;;;;;;;;5030647;28;20032;-87
2023/07/17 07:50:00;;;;;;;9.63;4.50;;;;;;;;;;5034080;28;20029;-87
2023/07/17 07:52:26;;;;;;;9.20;4.22;;;;;;;;;;5016461;28;20035;-87
2023/07/17 07:54:52;;;;;;;9.05;4.25;;;;;;;;;;5033967;28;20079;-87
2023/07/17 07:57:17;;;;;;;10.05;4.00;;;;;;;;;;5034279;28;20029;-88
2023/07/17 07:59:42;;;;;;;9.15;3.80;;;;;;;;;;5022982;28;20052;-88
2023/07/17 08:02:09;;;;;;;11.85;3.90;;;;;;;;;;5034258;28;20099;-86
2023/07/17 08:04:35;;;;;;;8.45;3.75;;;;;;;;;;5033350;28;20028;-86
2023/07/17 08:07:00;;;;;;;8.40;3.53;;;;;;;;;;5036352;28;20025;-88
2023/07/17 08:09:26;;;;;;;11.95;3.72;;;;;;;;;;5015781;28;20598;-85
2023/07/17 08:11:52;;;;;;;11.10;3.85;;;;;;;;;;5033790;28;20052;-87
2023/07/17 08:14:20;;;;;;;9.45;3.53;;;;;;;;;;5033300;28;20439;-86
2023/07/17 08:16:46;;;;;;;8.98;3.50;;;;;;;;;;5015704;28;20025;-87
2023/07/17 08:19:12;;;;;;;7.93;3.22;;;;;;;;;;5016207;28;20033;-87
2023/07/17 08:21:37;;;;;;;6.03;3.20;;;;;;;;;;5012641;28;20475;-87
2023/07/17 08:24:03;;;;;;;8.30;3.60;;;;;;;;;;5013696;28;20485;-88
2023/07/17 08:26:28;;;;;;;8.68;3.20;;;;;;;;;;5030026;28;20021;-88
2023/07/17 08:28:54;;;;;;;6.63;3.28;;;;;;;;;;5015964;28;20025;-87
2023/07/17 08:31:19;;;;;;;6.80;3.00;;;;;;;;;;5037394;28;20504;-88
2023/07/17 08:33:45;;;;;;;8.10;3.58;;;;;;;;;;5016161;28;20033;-88
2023/07/17 08:36:10;;;;;;;8.35;3.20;;;;;;;;;;5018158;28;20120;-88
2023/07/17 08:38:36;;;;;;;7.72;2.92;;;;;;;;;;5015715;28;20021;-89
2023/07/17 08:41:02;;;;;;;7.18;2.90;;;;;;;;;;5032887;28;20124;-88
2023/07/17 08:43:28;;;;;;;6.82;3.00;;;;;;;;;;5015504;28;20108;-88
2023/07/17 08:45:54;;;;;;;7.97;2.78;;;;;;;;;;5031751;28;20029;-88
2023/07/17 08:48:20;;;;;;;7.28;3.20;;;;;;;;;;5023946;28;20021;-88
2023/07/17 08:50:46;;;;;;;10.43;3.55;;;;;;;;;;5021549;28;20018;-87
2023/07/17 08:53:13;;;;;;;8.52;3.10;;;;;;;;;;5024624;28;20026;-88
2023/07/17 08:55:39;;;;;;;6.18;3.13;;;;;;;;;;4997035;28;20029;-89
2023/07/17 08:58:04;;;;;;;5.72;3.00;;;;;;;;;;5013335;28;20022;-88
2023/07/17 09:00:31;;;;;;;7.13;3.00;;;;;;;;;;5014074;28;20473;-87
2023/07/17 09:02:57;;;;;;;7.05;3.15;;;;;;;;;;5008275;28;20064;-87
2023/07/17 09:05:23;;;;;;;7.50;3.15;;;;;;;;;;5025504;28;20496;-88
2023/07/17 09:07:48;;;;;;;7.65;3.50;;;;;;;;;;4998796;28;20028;-87
2023/07/17 09:10:15;;;;;;;7.18;3.22;;;;;;;;;;5031881;28;20032;-88
2023/07/17 09:12:42;;;;;;;6.07;3.03;;;;;;;;;;5014387;28;20108;-88
2023/07/17 09:15:09;;;;;;;10.52;3.70;;;;;;;;;;5018688;28;20026;-88
2023/07/17 09:17:34;;;;;;;7.88;3.42;;;;;;;;;;5015252;28;20030;-88
2023/07/17 09:20:08;;;;;;;10.73;3.72;;;;;;;;;;5033719;28;20109;-88
2023/07/17 09:22:34;;;;;;;12.90;4.00;;;;;;;;;;5014802;28;20061;-89
2023/07/17 09:25:00;;;;;;;7.45;3.42;;;;;;;;;;5014633;28;20470;-88
2023/07/17 09:27:25;;;;;;;7.63;3.47;;;;;;;;;;5014748;28;20375;-88
2023/07/17 09:29:51;;;;;;;7.30;3.03;;;;;;;;;;5032441;28;20033;-87
2023/07/17 09:32:22;;;;;;;6.43;3.10;;;;;;;;;;5032288;28;21689;-87
2023/07/17 09:34:52;;;;;;;8.40;3.47;;;;;;;;;;5032304;28;20055;-88
2023/07/17 09:37:18;;;;;;;10.20;4.47;;;;;;;;;;5014763;28;20454;-88
2023/07/17 09:39:43;;;;;;;6.78;3.10;;;;;;;;;;5031041;28;20053;-87
2023/07/17 09:42:25;;;;;;;7.25;3.20;;;;;;;;;;5024121;28;20022;-88
2023/07/17 09:44:51;;;;;;;8.85;3.35;;;;;;;;;;5030148;28;20068;-87
2023/07/17 09:47:18;;;;;;;9.30;3.90;;;;;;;;;;5019680;28;20052;-87
2023/07/17 09:49:44;;;;;;;7.38;3.60;;;;;;;;;;5032565;28;20022;-87
2023/07/17 09:52:09;;;;;;;5.78;3.33;;;;;;;;;;5015520;28;20077;-86
2023/07/17 09:54:37;;;;;;;7.32;3.50;;;;;;;;;;5032529;28;20544;-87
2023/07/17 09:57:04;;;;;;;9.75;3.58;;;;;;;;;;5014220;28;20469;-87
2023/07/17 09:59:34;;;;;;;8.07;3.72;;;;;;;;;;5017984;28;20060;-88
2023/07/17 10:02:02;;;;;;;7.25;3.10;;;;;;;;;;5032371;28;20040;-85
2023/07/17 10:04:42;;;;;;;9.13;3.42;;;;;;;;;;5015263;28;20375;-86
2023/07/17 10:07:09;;;;;;;7.22;2.92;;;;;;;;;;5014855;28;20026;-87
2023/07/17 10:09:36;;;;;;;12.45;4.07;;;;;;;;;;5010070;28;20474;-86
2023/07/17 10:12:03;;;;;;;8.30;3.80;;;;;;;;;;5016579;28;20466;-87
2023/07/17 10:14:30;;;;;;;5.45;3.03;;;;;;;;;;5014565;28;20029;-86
2023/07/17 10:16:55;;;;;;;6.68;3.22;;;;;;;;;;5032034;28;20021;-87
2023/07/17 10:19:21;;;;;;;7.55;3.13;;;;;;;;;;5014366;28;20087;-87
2023/07/17 10:21:55;;;;;;;6.03;3.08;;;;;;;;;;5014044;28;20042;-86
2023/07/17 10:24:24;;;;;;;8.57;3.30;;;;;;;;;;5018284;28;20389;-87
2023/07/17 10:26:50;;;;;;;7.15;3.10;;;;;;;;;;5018003;28;20025;-86
2023/07/17 10:29:28;;;;;;;7.97;3.30;;;;;;;;;;5015642;28;20091;-85
2023/07/17 10:31:55;;;;;;;7.90;3.00;;;;;;;;;;5010480;28;20032;-87
2023/07/17 10:34:50;;;;;;;7.80;3.00;;;;;;;;;;5020429;28;20120;-87
2023/07/17 10:37:41;;;;;;;6.55;3.30;;;;;;;;;;5017728;28;21421;-86
2023/07/17 10:40:24;;;;;;;6.35;3.00;;;;;;;;;;5021499;28;20045;-85
2023/07/17 10:42:49;;;;;;;7.47;2.90;;;;;;;;;;5013828;28;20105;-85
2023/07/17 10:45:15;;;;;;;7.70;2.55;;;;;;;;;;5017483;28;20132;-85
2023/07/17 10:47:41;;;;;;;6.20;2.95;;;;;;;;;;5020175;28;20013;-85
2023/07/17 10:50:07;;;;;;;5.30;2.80;;;;;;;;;;5038093;28;20064;-86
2023/07/17 10:52:33;;;;;;;7.20;2.60;;;;;;;;;;5019603;28;20052;-85
2023/07/17 10:55:03;;;;;;;7.80;2.72;;;;;;;;;;5035675;28;20374;-85
2023/07/17 10:57:29;;;;;;;6.70;3.08;;;;;;;;;;5003422;28;20087;-87
2023/07/17 10:59:56;;;;;;;6.75;2.83;;;;;;;;;;5040008;28;20029;-85
2023/07/17 11:02:25;;;;;;;4.93;2.55;;;;;;;;;;5004785;28;20064;-85
2023/07/17 11:04:54;;;;;;;8.25;2.92;;;;;;;;;;5025205;28;20040;-85
2023/07/17 11:07:19;;;;;;;7.30;2.70;;;;;;;;;;5032402;28;20486;-86
2023/07/17 11:09:45;;;;;;;4.38;2.50;;;;;;;;;;5013670;28;20020;-86
2023/07/17 11:12:10;;;;;;;5.35;2.38;;;;;;;;;;5013913;28;20043;-86
2023/07/17 11:14:36;;;;;;;5.93;2.60;;;;;;;;;;5022165;28;20113;-84
2023/07/17 11:17:01;;;;;;;5.88;2.72;;;;;;;;;;5008183;28;20029;-76
2023/07/17 11:19:27;;;;;;;5.15;2.30;;;;;;;;;;5018646;28;20018;-76
2023/07/17 11:21:55;;;;;;;5.70;2.80;;;;;;;;;;5033862;28;20026;-76
2023/07/17 11:24:20;;;;;;;5.18;2.70;;;;;;;;;;5017035;28;20026;-76
2023/07/17 11:26:47;;;;;;;5.35;2.70;;;;;;;;;;5034466;28;20025;-77
2023/07/17 11:29:12;;;;;;;6.78;2.50;;;;;;;;;;5015993;28;20044;-76
2023/07/17 11:31:38;;;;;;;5.68;2.90;;;;;;;;;;5016670;28;20481;-76
2023/07/17 11:34:10;;;;;;;6.10;2.80;;;;;;;;;;5033493;28;20026;-76
2023/07/17 11:36:45;;;;;;;5.37;2.60;;;;;;;;;;5035523;28;20026;-76
2023/07/17 11:39:17;;;;;;;6.13;2.70;;;;;;;;;;5034425;28;20259;-76
2023/07/17 11:41:47;;;;;;;6.70;2.90;;;;;;;;;;5010148;28;20025;-76
2023/07/17 11:44:33;;;;;;;6.50;2.45;;;;;;;;;;5016468;28;20022;-76
2023/07/17 11:47:04;;;;;;;5.50;2.50;;;;;;;;;;5016577;28;20108;-76
2023/07/17 11:49:30;;;;;;;7.28;2.58;;;;;;;;;;5025049;28;20107;-77
2023/07/17 11:51:56;;;;;;;6.72;2.60;;;;;;;;;;5033389;28;20490;-77
2023/07/17 11:54:28;;;;;;;5.85;2.58;;;;;;;;;;5030618;28;20022;-76
2023/07/17 11:56:59;;;;;;;6.82;2.65;;;;;;;;;;5015962;28;20036;-77
2023/07/17 11:59:25;;;;;;;7.38;2.70;;;;;;;;;;5034044;28;20021;-76
2023/07/17 12:01:51;;;;;;;6.68;2.70;;;;;;;;;;5000318;28;20033;-76
2023/07/17 12:04:20;;;;;;;6.38;2.63;;;;;;;;;;5017615;28;20040;-76
2023/07/17 12:06:46;;;;;;;5.50;2.50;;;;;;;;;;5033729;28;20021;-76
2023/07/17 12:09:12;;;;;;;7.13;3.10;;;;;;;;;;5033716;28;20544;-76
2023/07/17 12:11:38;;;;;;;5.65;2.72;;;;;;;;;;5015948;28;20022;-76
2023/07/17 12:14:03;;;;;;;4.95;2.83;;;;;;;;;;5034821;28;20542;-77
2023/07/17 12:16:28;;;;;;;6.13;2.65;;;;;;;;;;5038433;28;20021;-76
2023/07/17 12:18:54;;;;;;;4.57;2.60;;;;;;;;;;5015728;28;20060;-77
2023/07/17 12:21:19;;;;;;;7.63;2.78;;;;;;;;;;5033664;28;20128;-75
2023/07/17 12:23:44;;;;;;;6.38;2.47;;;;;;;;;;5030128;28;20033;-76
2023/07/17 12:26:10;;;;;;;6.43;2.72;;;;;;;;;;5015634;28;20539;-77
2023/07/17 12:28:35;;;;;;;4.38;2.10;;;;;;;;;;5033336;28;20036;-75
2023/07/17 12:31:01;;;;;;;6.95;2.58;;;;;;;;;;5036315;28;20067;-76
2023/07/17 12:33:26;;;;;;;7.43;2.80;;;;;;;;;;5027098;28;20030;-75
2023/07/17 12:35:51;;;;;;;5.13;2.30;;;;;;;;;;5024088;28;20458;-75
2023/07/17 12:38:18;;;;;;;7.90;3.10;;;;;;;;;;5032120;28;20405;-75
2023/07/17 12:40:43;;;;;;;6.32;2.42;;;;;;;;;;5016837;28;20027;-76
2023/07/17 12:43:08;;;;;;;4.65;2.35;;;;;;;;;;5017703;28;20025;-76
2023/07/17 12:45:34;;;;;;;5.80;2.67;;;;;;;;;;5032902;28;20028;-76
2023/07/17 12:47:59;;;;;;;6.18;2.83;;;;;;;;;;5031681;28;20374;-75
2023/07/17 12:50:25;;;;;;;5.93;2.72;;;;;;;;;;5033116;28;20096;-76
2023/07/17 12:52:50;;;;;;;8.30;3.38;;;;;;;;;;5027214;28;20041;-78
2023/07/17 12:55:15;;;;;;;4.57;2.78;;;;;;;;;;5022290;28;20026;-76
2023/07/17 12:57:41;;;;;;;6.00;2.65;;;;;;;;;;5015341;28;20026;-75
2023/07/17 13:00:07;;;;;;;6.13;3.28;;;;;;;;;;5016132;28;20131;-76
2023/07/17 13:02:32;;;;;;;9.40;2.83;;;;;;;;;;5027381;28;20424;-77
2023/07/17 13:04:57;;;;;;;6.82;2.90;;;;;;;;;;5012911;28;20171;-76
2023/07/17 13:07:23;;;;;;;7.15;2.88;;;;;;;;;;5027483;28;20395;-75
2023/07/17 13:09:48;;;;;;;6.50;3.20;;;;;;;;;;5031516;28;20414;-77
2023/07/17 13:12:14;;;;;;;5.55;2.60;;;;;;;;;;5032808;28;20057;-75
2023/07/17 13:14:40;;;;;;;3.90;2.20;;;;;;;;;;5032697;28;20078;-75
2023/07/17 13:17:06;;;;;;;4.68;2.08;;;;;;;;;;5031249;28;20052;-75
2023/07/17 13:19:31;;;;;;;4.55;2.30;;;;;;;;;;5032596;28;20032;-77
2023/07/17 13:21:57;;;;;;;4.15;2.05;;;;;;;;;;5025505;28;20029;-75
2023/07/17 13:24:23;;;;;;;5.55;2.47;;;;;;;;;;5015009;28;20136;-75
2023/07/17 13:26:48;;;;;;;3.45;1.70;;;;;;;;;;5030832;28;20470;-75
2023/07/17 13:29:14;;;;;;;3.90;2.00;;;;;;;;;;5014753;28;20104;-77
2023/07/17 13:31:39;;;;;;;3.30;1.67;;;;;;;;;;5032461;28;20087;-75
2023/07/17 13:34:04;;;;;;;4.45;1.92;;;;;;;;;;5032054;28;20071;-75
2023/07/17 13:36:30;;;;;;;3.67;1.90;;;;;;;;;;5014920;28;20362;-75
2023/07/17 13:38:55;;;;;;;3.40;1.63;;;;;;;;;;5014646;28;20450;-75
2023/07/17 13:41:47;;;;;;;5.78;2.17;;;;;;;;;;5032294;28;20022;-76
2023/07/17 13:44:13;;;;;;;4.40;2.17;;;;;;;;;;5014711;28;20455;-75
2023/07/17 13:46:40;;;;;;;5.00;2.30;;;;;;;;;;5032337;28;20053;-75
2023/07/17 13:49:06;;;;;;;6.80;2.50;;;;;;;;;;5032217;28;20465;-75
2023/07/17 13:51:33;;;;;;;4.50;2.50;;;;;;;;;;5014379;28;20104;-76
2023/07/17 13:53:59;;;;;;;6.07;2.60;;;;;;;;;;5032185;28;20096;-76
2023/07/17 13:56:24;;;;;;;6.10;2.40;;;;;;;;;;5014817;28;20018;-75
2023/07/17 13:58:49;;;;;;;5.15;2.58;;;;;;;;;;5017642;28;20068;-75
2023/07/17 14:01:15;;;;;;;4.00;2.10;;;;;;;;;;5044078;28;20029;-75
2023/07/17 14:03:40;;;;;;;5.22;2.15;;;;;;;;;;5024051;28;20433;-75
2023/07/17 14:06:06;;;;;;;4.72;2.30;;;;;;;;;;5009179;28;20128;-75
2023/07/17 14:08:31;;;;;;;4.10;1.90;;;;;;;;;;5035926;28;20442;-75
2023/07/17 14:10:56;;;;;;;3.20;1.90;;;;;;;;;;5023017;28;20087;-75
2023/07/17 14:13:22;;;;;;;3.92;1.80;;;;;;;;;;5035878;28;20029;-75
2023/07/17 14:15:47;;;;;;;4.20;1.85;;;;;;;;;;5020076;28;20370;-75
2023/07/17 14:18:12;;;;;;;4.93;1.88;;;;;;;;;;5041488;28;20032;-75
2023/07/17 14:20:38;;;;;;;3.40;1.80;;;;;;;;;;5016639;28;20029;-75
2023/07/17 14:23:03;;;;;;;4.32;2.10;;;;;;;;;;5022701;28;20039;-75
2023/07/17 14:25:31;;;;;;;3.90;2.10;;;;;;;;;;5019413;28;20117;-75
2023/07/17 14:27:56;;;;;;;4.68;2.10;;;;;;;;;;5027781;28;20112;-75
2023/07/17 14:30:22;;;;;;;5.30;2.20;;;;;;;;;;5035923;28;20538;-76
2023/07/17 14:32:49;;;;;;;4.90;2.20;;;;;;;;;;5035775;28;20112;-75
2023/07/17 14:35:15;;;;;;;5.00;2.10;;;;;;;;;;5040832;28;20493;-75
2023/07/17 14:37:41;;;;;;;7.40;2.30;;;;;;;;;;5022834;28;20029;-75
2023/07/17 14:40:07;;;;;;;3.88;2.10;;;;;;;;;;5035344;28;20029;-76